WMKK/KUL METAR and TAF weather

Enter ICAO airport designator
Station Type Date Time Source
WMKK METAR 2021/08/01 16:30 UTC NOAA

WMKK 011630Z VRB02KT 9000 FEW017CB 27/24 Q1011 NOSIG


Station Type Date Time Source
WMKK Decoded METAR 2021/08/01 16:30 UTC NOAA

Sepang/KL International Airport, Malaysia (WMKK) 02-44N 101-42E 22M
Aug 01, 2021 - 12:30 PM EDT / 2021.08.01 1630 UTC
Wind: Variable at 2 MPH (2 KT):0
Visibility: 5 mile(s):0
Sky conditions: mostly clear
Weather: Cumulonimbus clouds observed
Temperature: 80 F (27 C)
Dew Point: 75 F (24 C)
Relative Humidity: 83%
Pressure (altimeter): 29.85 in. Hg (1011 hPa)
ob: WMKK 011630Z VRB02KT 9000 FEW017CB 27/24 Q1011 NOSIG
cycle: 16

Station Type Date Time Source
WMKK TAF 2021/08/01 12:19 UTC NOAA

TAF WMKK 011100Z 0112/0218 23005KT 9999 FEW017CB PROB30
TEMPO 0118/0122 5000 TSRA FEW008 FEW017CB

Example: see airport list